sensor_id;sensor_type;location;lat;lon;timestamp;P1;durP1;ratioP1;P2;durP2;ratioP2
83562;SDS011;73535;52.500;13.482;2024-01-16T00:01:07;7.13;;;1.40;;
83562;SDS011;73535;52.500;13.482;2024-01-16T00:03:33;5.70;;;1.45;;
83562;SDS011;73535;52.500;13.482;2024-01-16T00:05:59;4.05;;;1.20;;
83562;SDS011;73535;52.500;13.482;2024-01-16T00:08:25;2.78;;;1.10;;
83562;SDS011;73535;52.500;13.482;2024-01-16T00:10:50;2.10;;;0.90;;
83562;SDS011;73535;52.500;13.482;2024-01-16T00:13:16;1.92;;;0.85;;
83562;SDS011;73535;52.500;13.482;2024-01-16T00:15:41;3.05;;;1.17;;
83562;SDS011;73535;52.500;13.482;2024-01-16T00:18:07;3.20;;;1.05;;
83562;SDS011;73535;52.500;13.482;2024-01-16T00:20:33;2.13;;;1.20;;
83562;SDS011;73535;52.500;13.482;2024-01-16T00:22:59;4.22;;;1.27;;
83562;SDS011;73535;52.500;13.482;2024-01-16T00:25:24;2.00;;;1.20;;
83562;SDS011;73535;52.500;13.482;2024-01-16T00:27:49;3.45;;;1.65;;
83562;SDS011;73535;52.500;13.482;2024-01-16T00:30:15;4.30;;;1.42;;
83562;SDS011;73535;52.500;13.482;2024-01-16T00:32:40;4.70;;;1.40;;
83562;SDS011;73535;52.500;13.482;2024-01-16T00:35:05;5.15;;;1.30;;
83562;SDS011;73535;52.500;13.482;2024-01-16T00:37:30;4.22;;;1.30;;
83562;SDS011;73535;52.500;13.482;2024-01-16T00:39:56;6.20;;;1.92;;
83562;SDS011;73535;52.500;13.482;2024-01-16T00:42:21;3.33;;;1.30;;
83562;SDS011;73535;52.500;13.482;2024-01-16T00:44:46;5.85;;;1.40;;
83562;SDS011;73535;52.500;13.482;2024-01-16T00:47:11;5.97;;;1.55;;
83562;SDS011;73535;52.500;13.482;2024-01-16T00:49:37;3.67;;;1.50;;
83562;SDS011;73535;52.500;13.482;2024-01-16T00:52:02;2.97;;;1.80;;
83562;SDS011;73535;52.500;13.482;2024-01-16T00:54:27;2.70;;;1.50;;
83562;SDS011;73535;52.500;13.482;2024-01-16T00:56:53;4.10;;;1.40;;
83562;SDS011;73535;52.500;13.482;2024-01-16T00:59:20;3.70;;;1.58;;
83562;SDS011;73535;52.500;13.482;2024-01-16T01:01:45;3.47;;;1.83;;
83562;SDS011;73535;52.500;13.482;2024-01-16T01:04:11;4.25;;;1.40;;
83562;SDS011;73535;52.500;13.482;2024-01-16T01:06:36;4.63;;;1.35;;
83562;SDS011;73535;52.500;13.482;2024-01-16T01:09:01;3.00;;;1.33;;
83562;SDS011;73535;52.500;13.482;2024-01-16T01:11:27;4.25;;;1.30;;
83562;SDS011;73535;52.500;13.482;2024-01-16T01:13:53;2.25;;;1.40;;
83562;SDS011;73535;52.500;13.482;2024-01-16T01:16:18;3.00;;;1.20;;
83562;SDS011;73535;52.500;13.482;2024-01-16T01:18:43;2.38;;;1.17;;
83562;SDS011;73535;52.500;13.482;2024-01-16T01:21:08;2.92;;;1.10;;
83562;SDS011;73535;52.500;13.482;2024-01-16T01:23:34;2.40;;;1.33;;
83562;SDS011;73535;52.500;13.482;2024-01-16T01:25:59;3.35;;;1.00;;
83562;SDS011;73535;52.500;13.482;2024-01-16T01:28:25;2.50;;;0.85;;
83562;SDS011;73535;52.500;13.482;2024-01-16T01:30:50;2.42;;;0.80;;
83562;SDS011;73535;52.500;13.482;2024-01-16T01:33:15;1.80;;;0.90;;
83562;SDS011;73535;52.500;13.482;2024-01-16T01:35:41;3.15;;;0.82;;
83562;SDS011;73535;52.500;13.482;2024-01-16T01:38:06;1.77;;;0.88;;
83562;SDS011;73535;52.500;13.482;2024-01-16T01:40:33;2.17;;;0.82;;
83562;SDS011;73535;52.500;13.482;2024-01-16T01:42:58;2.10;;;1.10;;
83562;SDS011;73535;52.500;13.482;2024-01-16T01:45:41;2.85;;;0.90;;
83562;SDS011;73535;52.500;13.482;2024-01-16T01:48:07;4.28;;;1.40;;
83562;SDS011;73535;52.500;13.482;2024-01-16T01:50:32;3.53;;;1.17;;
83562;SDS011;73535;52.500;13.482;2024-01-16T01:52:57;2.75;;;1.52;;
83562;SDS011;73535;52.500;13.482;2024-01-16T01:55:22;1.77;;;1.40;;
83562;SDS011;73535;52.500;13.482;2024-01-16T01:57:48;3.70;;;1.42;;
83562;SDS011;73535;52.500;13.482;2024-01-16T02:00:13;3.95;;;1.60;;
83562;SDS011;73535;52.500;13.482;2024-01-16T02:02:40;3.33;;;1.52;;
83562;SDS011;73535;52.500;13.482;2024-01-16T02:05:06;2.88;;;1.10;;
83562;SDS011;73535;52.500;13.482;2024-01-16T02:07:32;4.03;;;0.90;;
83562;SDS011;73535;52.500;13.482;2024-01-16T02:09:58;4.93;;;1.45;;
83562;SDS011;73535;52.500;13.482;2024-01-16T02:12:25;3.97;;;1.48;;
83562;SDS011;73535;52.500;13.482;2024-01-16T02:14:50;4.00;;;1.40;;
83562;SDS011;73535;52.500;13.482;2024-01-16T02:17:15;2.25;;;1.70;;
83562;SDS011;73535;52.500;13.482;2024-01-16T02:19:41;2.45;;;1.40;;
83562;SDS011;73535;52.500;13.482;2024-01-16T02:22:06;2.92;;;1.38;;
83562;SDS011;73535;52.500;13.482;2024-01-16T02:24:37;3.03;;;1.20;;
83562;SDS011;73535;52.500;13.482;2024-01-16T02:27:03;1.90;;;1.00;;
83562;SDS011;73535;52.500;13.482;2024-01-16T02:29:28;4.80;;;1.20;;
83562;SDS011;73535;52.500;13.482;2024-01-16T02:31:54;3.90;;;1.40;;
83562;SDS011;73535;52.500;13.482;2024-01-16T02:34:19;3.90;;;1.40;;
83562;SDS011;73535;52.500;13.482;2024-01-16T02:36:44;3.55;;;1.45;;
83562;SDS011;73535;52.500;13.482;2024-01-16T02:39:09;2.53;;;1.38;;
83562;SDS011;73535;52.500;13.482;2024-01-16T02:41:35;1.77;;;1.05;;
83562;SDS011;73535;52.500;13.482;2024-01-16T02:44:00;4.05;;;1.58;;
83562;SDS011;73535;52.500;13.482;2024-01-16T02:46:25;2.08;;;1.20;;
83562;SDS011;73535;52.500;13.482;2024-01-16T02:48:51;3.95;;;1.33;;
83562;SDS011;73535;52.500;13.482;2024-01-16T02:51:16;2.72;;;1.42;;
83562;SDS011;73535;52.500;13.482;2024-01-16T02:53:41;4.70;;;1.38;;
83562;SDS011;73535;52.500;13.482;2024-01-16T02:56:07;3.28;;;1.65;;
83562;SDS011;73535;52.500;13.482;2024-01-16T02:58:33;2.72;;;1.73;;
83562;SDS011;73535;52.500;13.482;2024-01-16T03:00:58;3.55;;;1.40;;
83562;SDS011;73535;52.500;13.482;2024-01-16T03:03:23;3.20;;;1.45;;
83562;SDS011;73535;52.500;13.482;2024-01-16T03:05:51;3.60;;;1.50;;
83562;SDS011;73535;52.500;13.482;2024-01-16T03:08:16;2.75;;;1.40;;
83562;SDS011;73535;52.500;13.482;2024-01-16T03:10:42;2.92;;;1.20;;
83562;SDS011;73535;52.500;13.482;2024-01-16T03:13:07;4.78;;;1.58;;
83562;SDS011;73535;52.500;13.482;2024-01-16T03:15:32;3.60;;;1.40;;
83562;SDS011;73535;52.500;13.482;2024-01-16T03:17:58;3.30;;;1.00;;
83562;SDS011;73535;52.500;13.482;2024-01-16T03:20:24;3.75;;;1.33;;
83562;SDS011;73535;52.500;13.482;2024-01-16T03:22:49;4.35;;;1.40;;
83562;SDS011;73535;52.500;13.482;2024-01-16T03:25:15;1.83;;;1.17;;
83562;SDS011;73535;52.500;13.482;2024-01-16T03:27:41;3.47;;;1.20;;
83562;SDS011;73535;52.500;13.482;2024-01-16T03:30:08;2.58;;;1.27;;
83562;SDS011;73535;52.500;13.482;2024-01-16T03:32:34;3.30;;;1.42;;
83562;SDS011;73535;52.500;13.482;2024-01-16T03:34:59;3.50;;;1.60;;
83562;SDS011;73535;52.500;13.482;2024-01-16T03:37:25;3.35;;;1.55;;
83562;SDS011;73535;52.500;13.482;2024-01-16T03:39:50;2.67;;;1.80;;
83562;SDS011;73535;52.500;13.482;2024-01-16T03:42:15;2.58;;;1.75;;
83562;SDS011;73535;52.500;13.482;2024-01-16T03:44:41;3.60;;;1.55;;
83562;SDS011;73535;52.500;13.482;2024-01-16T03:47:06;2.55;;;1.42;;
83562;SDS011;73535;52.500;13.482;2024-01-16T03:49:32;3.63;;;1.73;;
83562;SDS011;73535;52.500;13.482;2024-01-16T03:51:57;6.13;;;2.17;;
83562;SDS011;73535;52.500;13.482;2024-01-16T03:54:22;3.55;;;1.80;;
83562;SDS011;73535;52.500;13.482;2024-01-16T03:56:47;3.17;;;1.70;;
83562;SDS011;73535;52.500;13.482;2024-01-16T03:59:13;2.40;;;1.40;;
83562;SDS011;73535;52.500;13.482;2024-01-16T04:01:38;3.90;;;2.00;;
83562;SDS011;73535;52.500;13.482;2024-01-16T04:04:03;2.65;;;1.60;;
83562;SDS011;73535;52.500;13.482;2024-01-16T04:06:31;4.80;;;1.95;;
83562;SDS011;73535;52.500;13.482;2024-01-16T04:08:57;7.95;;;2.50;;
83562;SDS011;73535;52.500;13.482;2024-01-16T04:11:22;2.67;;;1.80;;
83562;SDS011;73535;52.500;13.482;2024-01-16T04:13:48;4.22;;;1.83;;
83562;SDS011;73535;52.500;13.482;2024-01-16T04:16:13;2.60;;;2.10;;
83562;SDS011;73535;52.500;13.482;2024-01-16T04:18:42;4.18;;;1.90;;
83562;SDS011;73535;52.500;13.482;2024-01-16T04:21:08;4.38;;;1.83;;
83562;SDS011;73535;52.500;13.482;2024-01-16T04:23:33;3.70;;;2.38;;
83562;SDS011;73535;52.500;13.482;2024-01-16T04:25:59;4.88;;;2.47;;
83562;SDS011;73535;52.500;13.482;2024-01-16T04:28:24;6.63;;;4.78;;
83562;SDS011;73535;52.500;13.482;2024-01-16T04:30:49;24.13;;;12.95;;
83562;SDS011;73535;52.500;13.482;2024-01-16T04:33:15;53.15;;;29.90;;
83562;SDS011;73535;52.500;13.482;2024-01-16T04:35:40;28.58;;;14.85;;
83562;SDS011;73535;52.500;13.482;2024-01-16T04:38:06;22.20;;;10.55;;
83562;SDS011;73535;52.500;13.482;2024-01-16T04:40:32;10.05;;;6.72;;
83562;SDS011;73535;52.500;13.482;2024-01-16T04:42:58;3.97;;;2.72;;
83562;SDS011;73535;52.500;13.482;2024-01-16T04:45:23;7.00;;;4.32;;
83562;SDS011;73535;52.500;13.482;2024-01-16T04:47:48;7.43;;;3.28;;
83562;SDS011;73535;52.500;13.482;2024-01-16T04:50:13;8.57;;;3.72;;
83562;SDS011;73535;52.500;13.482;2024-01-16T04:52:39;5.65;;;4.00;;
83562;SDS011;73535;52.500;13.482;2024-01-16T04:55:04;6.72;;;4.13;;
83562;SDS011;73535;52.500;13.482;2024-01-16T04:57:29;4.85;;;2.80;;
83562;SDS011;73535;52.500;13.482;2024-01-16T04:59:55;4.72;;;3.28;;
83562;SDS011;73535;52.500;13.482;2024-01-16T05:02:20;5.05;;;2.78;;
83562;SDS011;73535;52.500;13.482;2024-01-16T05:04:45;8.15;;;3.80;;
83562;SDS011;73535;52.500;13.482;2024-01-16T05:07:14;5.13;;;1.80;;
83562;SDS011;73535;52.500;13.482;2024-01-16T05:09:39;5.88;;;2.42;;
83562;SDS011;73535;52.500;13.482;2024-01-16T05:12:04;6.53;;;2.25;;
83562;SDS011;73535;52.500;13.482;2024-01-16T05:14:30;4.35;;;2.05;;
83562;SDS011;73535;52.500;13.482;2024-01-16T05:16:55;4.45;;;1.88;;
83562;SDS011;73535;52.500;13.482;2024-01-16T05:19:20;5.90;;;2.25;;
83562;SDS011;73535;52.500;13.482;2024-01-16T05:21:45;2.55;;;1.95;;
83562;SDS011;73535;52.500;13.482;2024-01-16T05:24:11;3.60;;;2.22;;
83562;SDS011;73535;52.500;13.482;2024-01-16T05:26:36;4.05;;;2.10;;
83562;SDS011;73535;52.500;13.482;2024-01-16T05:29:02;4.10;;;2.38;;
83562;SDS011;73535;52.500;13.482;2024-01-16T05:31:27;4.38;;;2.90;;
83562;SDS011;73535;52.500;13.482;2024-01-16T05:33:52;5.57;;;2.63;;
83562;SDS011;73535;52.500;13.482;2024-01-16T05:36:18;5.22;;;3.10;;
83562;SDS011;73535;52.500;13.482;2024-01-16T05:38:43;8.68;;;3.55;;
83562;SDS011;73535;52.500;13.482;2024-01-16T05:41:08;4.65;;;3.30;;
83562;SDS011;73535;52.500;13.482;2024-01-16T05:43:34;4.70;;;3.25;;
83562;SDS011;73535;52.500;13.482;2024-01-16T05:45:59;7.55;;;3.72;;
83562;SDS011;73535;52.500;13.482;2024-01-16T05:48:25;5.90;;;3.40;;
83562;SDS011;73535;52.500;13.482;2024-01-16T05:50:50;6.35;;;3.28;;
83562;SDS011;73535;52.500;13.482;2024-01-16T05:53:16;5.60;;;3.50;;
83562;SDS011;73535;52.500;13.482;2024-01-16T05:55:41;5.47;;;3.50;;
83562;SDS011;73535;52.500;13.482;2024-01-16T05:58:06;6.22;;;3.70;;
83562;SDS011;73535;52.500;13.482;2024-01-16T06:00:31;8.77;;;3.92;;
83562;SDS011;73535;52.500;13.482;2024-01-16T06:07:49;7.05;;;4.10;;
83562;SDS011;73535;52.500;13.482;2024-01-16T06:10:14;5.22;;;3.92;;
83562;SDS011;73535;52.500;13.482;2024-01-16T06:12:40;5.35;;;3.63;;
83562;SDS011;73535;52.500;13.482;2024-01-16T06:15:05;4.20;;;3.13;;
83562;SDS011;73535;52.500;13.482;2024-01-16T06:17:31;7.47;;;3.10;;
83562;SDS011;73535;52.500;13.482;2024-01-16T06:19:57;4.60;;;3.15;;
83562;SDS011;73535;52.500;13.482;2024-01-16T06:22:22;4.43;;;2.70;;
83562;SDS011;73535;52.500;13.482;2024-01-16T06:24:47;5.32;;;3.10;;
83562;SDS011;73535;52.500;13.482;2024-01-16T06:27:12;4.43;;;3.22;;
83562;SDS011;73535;52.500;13.482;2024-01-16T06:29:43;6.70;;;3.60;;
83562;SDS011;73535;52.500;13.482;2024-01-16T06:32:09;7.57;;;4.07;;
83562;SDS011;73535;52.500;13.482;2024-01-16T06:34:34;8.07;;;4.88;;
83562;SDS011;73535;52.500;13.482;2024-01-16T06:36:59;8.77;;;4.68;;
83562;SDS011;73535;52.500;13.482;2024-01-16T06:39:25;6.82;;;4.07;;
83562;SDS011;73535;52.500;13.482;2024-01-16T06:41:50;7.00;;;4.25;;
83562;SDS011;73535;52.500;13.482;2024-01-16T06:44:15;6.70;;;4.00;;
83562;SDS011;73535;52.500;13.482;2024-01-16T06:46:40;7.25;;;3.92;;
83562;SDS011;73535;52.500;13.482;2024-01-16T06:49:06;9.95;;;4.07;;
83562;SDS011;73535;52.500;13.482;2024-01-16T06:51:31;5.10;;;4.43;;
83562;SDS011;73535;52.500;13.482;2024-01-16T06:53:56;9.15;;;3.95;;
83562;SDS011;73535;52.500;13.482;2024-01-16T06:56:22;8.27;;;4.28;;
83562;SDS011;73535;52.500;13.482;2024-01-16T06:58:49;8.27;;;4.63;;
83562;SDS011;73535;52.500;13.482;2024-01-16T07:01:14;6.78;;;4.18;;
83562;SDS011;73535;52.500;13.482;2024-01-16T07:03:39;5.93;;;3.33;;
83562;SDS011;73535;52.500;13.482;2024-01-16T07:06:05;4.88;;;3.10;;
83562;SDS011;73535;52.500;13.482;2024-01-16T07:08:30;5.65;;;3.58;;
83562;SDS011;73535;52.500;13.482;2024-01-16T07:10:55;8.27;;;4.05;;
83562;SDS011;73535;52.500;13.482;2024-01-16T07:13:21;8.27;;;4.28;;
83562;SDS011;73535;52.500;13.482;2024-01-16T07:15:46;5.50;;;3.30;;
83562;SDS011;73535;52.500;13.482;2024-01-16T07:18:11;7.85;;;3.90;;
83562;SDS011;73535;52.500;13.482;2024-01-16T07:20:37;8.23;;;3.58;;
83562;SDS011;73535;52.500;13.482;2024-01-16T07:23:03;6.22;;;3.13;;
83562;SDS011;73535;52.500;13.482;2024-01-16T07:27:54;7.27;;;3.10;;
83562;SDS011;73535;52.500;13.482;2024-01-16T07:30:19;7.18;;;3.00;;
83562;SDS011;73535;52.500;13.482;2024-01-16T07:32:44;5.60;;;3.78;;
83562;SDS011;73535;52.500;13.482;2024-01-16T07:35:10;9.63;;;4.25;;
83562;SDS011;73535;52.500;13.482;2024-01-16T07:37:35;5.57;;;3.05;;
83562;SDS011;73535;52.500;13.482;2024-01-16T07:40:00;12.20;;;5.20;;
83562;SDS011;73535;52.500;13.482;2024-01-16T07:42:25;9.68;;;4.85;;
83562;SDS011;73535;52.500;13.482;2024-01-16T07:44:52;8.48;;;4.50;;
83562;SDS011;73535;52.500;13.482;2024-01-16T07:47:17;6.50;;;4.50;;
83562;SDS011;73535;52.500;13.482;2024-01-16T07:49:43;14.00;;;5.70;;
83562;SDS011;73535;52.500;13.482;2024-01-16T07:52:08;11.48;;;5.70;;
83562;SDS011;73535;52.500;13.482;2024-01-16T07:54:34;10.85;;;6.60;;
83562;SDS011;73535;52.500;13.482;2024-01-16T07:56:59;11.15;;;6.05;;
83562;SDS011;73535;52.500;13.482;2024-01-16T07:59:24;10.40;;;6.82;;
83562;SDS011;73535;52.500;13.482;2024-01-16T08:01:49;13.38;;;6.68;;
83562;SDS011;73535;52.500;13.482;2024-01-16T08:04:15;12.55;;;6.20;;
83562;SDS011;73535;52.500;13.482;2024-01-16T08:06:42;11.25;;;6.10;;
83562;SDS011;73535;52.500;13.482;2024-01-16T08:09:07;9.65;;;5.57;;
83562;SDS011;73535;52.500;13.482;2024-01-16T08:11:32;9.35;;;5.30;;
83562;SDS011;73535;52.500;13.482;2024-01-16T08:14:00;11.57;;;5.35;;
83562;SDS011;73535;52.500;13.482;2024-01-16T08:16:26;9.68;;;4.90;;
83562;SDS011;73535;52.500;13.482;2024-01-16T08:18:51;10.38;;;5.28;;
83562;SDS011;73535;52.500;13.482;2024-01-16T08:21:16;10.15;;;4.75;;
83562;SDS011;73535;52.500;13.482;2024-01-16T08:23:42;7.55;;;4.97;;
83562;SDS011;73535;52.500;13.482;2024-01-16T08:26:07;8.40;;;4.80;;
83562;SDS011;73535;52.500;13.482;2024-01-16T08:28:32;8.02;;;4.43;;
83562;SDS011;73535;52.500;13.482;2024-01-16T08:30:57;6.90;;;3.72;;
83562;SDS011;73535;52.500;13.482;2024-01-16T08:33:23;9.15;;;3.83;;
83562;SDS011;73535;52.500;13.482;2024-01-16T08:35:48;8.00;;;3.90;;
83562;SDS011;73535;52.500;13.482;2024-01-16T08:38:14;6.00;;;3.75;;
83562;SDS011;73535;52.500;13.482;2024-01-16T08:40:39;7.00;;;4.35;;
83562;SDS011;73535;52.500;13.482;2024-01-16T08:43:04;6.95;;;4.78;;
83562;SDS011;73535;52.500;13.482;2024-01-16T08:45:29;5.70;;;3.67;;
83562;SDS011;73535;52.500;13.482;2024-01-16T08:47:55;6.80;;;3.70;;
83562;SDS011;73535;52.500;13.482;2024-01-16T08:50:20;7.93;;;4.32;;
83562;SDS011;73535;52.500;13.482;2024-01-16T08:52:45;9.02;;;4.78;;
83562;SDS011;73535;52.500;13.482;2024-01-16T08:55:11;6.80;;;4.50;;
83562;SDS011;73535;52.500;13.482;2024-01-16T08:57:39;6.93;;;4.35;;
83562;SDS011;73535;52.500;13.482;2024-01-16T09:00:04;9.30;;;4.57;;
83562;SDS011;73535;52.500;13.482;2024-01-16T09:02:30;8.73;;;4.15;;
83562;SDS011;73535;52.500;13.482;2024-01-16T09:04:56;7.57;;;4.07;;
83562;SDS011;73535;52.500;13.482;2024-01-16T09:07:21;6.88;;;4.10;;
83562;SDS011;73535;52.500;13.482;2024-01-16T09:09:47;7.18;;;4.90;;
83562;SDS011;73535;52.500;13.482;2024-01-16T09:12:13;6.65;;;4.32;;
83562;SDS011;73535;52.500;13.482;2024-01-16T09:14:38;7.25;;;4.35;;
83562;SDS011;73535;52.500;13.482;2024-01-16T09:17:03;7.50;;;3.97;;
83562;SDS011;73535;52.500;13.482;2024-01-16T09:19:29;8.45;;;4.53;;
83562;SDS011;73535;52.500;13.482;2024-01-16T09:21:55;8.57;;;5.03;;
83562;SDS011;73535;52.500;13.482;2024-01-16T09:24:20;8.10;;;4.35;;
83562;SDS011;73535;52.500;13.482;2024-01-16T09:26:46;9.13;;;4.82;;
83562;SDS011;73535;52.500;13.482;2024-01-16T09:29:11;8.10;;;4.75;;
83562;SDS011;73535;52.500;13.482;2024-01-16T09:31:36;12.65;;;5.03;;
83562;SDS011;73535;52.500;13.482;2024-01-16T09:34:03;8.02;;;4.85;;
83562;SDS011;73535;52.500;13.482;2024-01-16T09:36:28;8.20;;;5.03;;
83562;SDS011;73535;52.500;13.482;2024-01-16T09:38:54;10.43;;;5.22;;
83562;SDS011;73535;52.500;13.482;2024-01-16T09:41:19;7.65;;;4.55;;
83562;SDS011;73535;52.500;13.482;2024-01-16T09:43:44;7.22;;;3.88;;
83562;SDS011;73535;52.500;13.482;2024-01-16T09:46:12;10.18;;;4.82;;
83562;SDS011;73535;52.500;13.482;2024-01-16T09:48:39;10.32;;;4.82;;
83562;SDS011;73535;52.500;13.482;2024-01-16T09:51:05;7.38;;;4.45;;
83562;SDS011;73535;52.500;13.482;2024-01-16T09:53:30;10.38;;;5.95;;
83562;SDS011;73535;52.500;13.482;2024-01-16T09:55:57;8.60;;;5.00;;
83562;SDS011;73535;52.500;13.482;2024-01-16T09:58:26;10.02;;;5.30;;
83562;SDS011;73535;52.500;13.482;2024-01-16T10:05:45;10.93;;;4.97;;
83562;SDS011;73535;52.500;13.482;2024-01-16T10:08:12;7.80;;;4.93;;
83562;SDS011;73535;52.500;13.482;2024-01-16T10:10:37;13.10;;;5.80;;
83562;SDS011;73535;52.500;13.482;2024-01-16T10:13:04;9.10;;;5.90;;
83562;SDS011;73535;52.500;13.482;2024-01-16T10:15:29;10.88;;;6.47;;
83562;SDS011;73535;52.500;13.482;2024-01-16T10:17:56;11.43;;;7.20;;
83562;SDS011;73535;52.500;13.482;2024-01-16T10:20:34;8.43;;;6.35;;
83562;SDS011;73535;52.500;13.482;2024-01-16T10:23:00;12.10;;;7.22;;
83562;SDS011;73535;52.500;13.482;2024-01-16T10:25:25;13.88;;;6.88;;
83562;SDS011;73535;52.500;13.482;2024-01-16T10:28:03;13.05;;;6.72;;
83562;SDS011;73535;52.500;13.482;2024-01-16T10:30:30;9.50;;;5.82;;
83562;SDS011;73535;52.500;13.482;2024-01-16T10:32:55;10.68;;;6.55;;
83562;SDS011;73535;52.500;13.482;2024-01-16T10:35:22;11.85;;;5.95;;
83562;SDS011;73535;52.500;13.482;2024-01-16T10:37:48;8.50;;;5.65;;
83562;SDS011;73535;52.500;13.482;2024-01-16T10:40:21;10.35;;;5.90;;
83562;SDS011;73535;52.500;13.482;2024-01-16T10:43:23;8.60;;;5.60;;
83562;SDS011;73535;52.500;13.482;2024-01-16T10:45:42;9.05;;;6.20;;
83562;SDS011;73535;52.500;13.482;2024-01-16T10:48:08;10.90;;;5.82;;
83562;SDS011;73535;52.500;13.482;2024-01-16T10:50:33;10.88;;;5.60;;
83562;SDS011;73535;52.500;13.482;2024-01-16T10:53:04;11.90;;;4.95;;
83562;SDS011;73535;52.500;13.482;2024-01-16T10:55:30;7.07;;;4.07;;
83562;SDS011;73535;52.500;13.482;2024-01-16T10:57:58;6.90;;;4.25;;
83562;SDS011;73535;52.500;13.482;2024-01-16T11:00:26;7.90;;;4.68;;
83562;SDS011;73535;52.500;13.482;2024-01-16T11:05:32;5.28;;;3.42;;
83562;SDS011;73535;52.500;13.482;2024-01-16T11:07:59;6.90;;;3.40;;
83562;SDS011;73535;52.500;13.482;2024-01-16T11:10:28;8.65;;;3.90;;
83562;SDS011;73535;52.500;13.482;2024-01-16T11:12:55;6.70;;;3.45;;
83562;SDS011;73535;52.500;13.482;2024-01-16T11:15:24;5.15;;;3.22;;
83562;SDS011;73535;52.500;13.482;2024-01-16T11:17:50;4.47;;;3.05;;
83562;SDS011;73535;52.500;13.482;2024-01-16T11:20:15;6.15;;;3.17;;
83562;SDS011;73535;52.500;13.482;2024-01-16T11:22:44;8.43;;;2.60;;
83562;SDS011;73535;52.500;13.482;2024-01-16T11:25:11;6.72;;;3.05;;
83562;SDS011;73535;52.500;13.482;2024-01-16T11:27:38;7.45;;;2.40;;
83562;SDS011;73535;52.500;13.482;2024-01-16T11:30:05;6.15;;;2.10;;
83562;SDS011;73535;52.500;13.482;2024-01-16T11:32:36;5.95;;;2.67;;
83562;SDS011;73535;52.500;13.482;2024-01-16T11:35:02;4.35;;;2.10;;
83562;SDS011;73535;52.500;13.482;2024-01-16T11:37:29;3.63;;;1.90;;
83562;SDS011;73535;52.500;13.482;2024-01-16T11:42:47;6.25;;;2.25;;
83562;SDS011;73535;52.500;13.482;2024-01-16T11:45:47;5.80;;;2.38;;
83562;SDS011;73535;52.500;13.482;2024-01-16T11:50:37;6.43;;;2.60;;
83562;SDS011;73535;52.500;13.482;2024-01-16T11:53:03;8.07;;;2.70;;
83562;SDS011;73535;52.500;13.482;2024-01-16T11:55:30;6.85;;;2.95;;
83562;SDS011;73535;52.500;13.482;2024-01-16T11:58:11;7.93;;;2.75;;
83562;SDS011;73535;52.500;13.482;2024-01-16T12:00:50;6.18;;;3.20;;
83562;SDS011;73535;52.500;13.482;2024-01-16T12:03:18;10.77;;;3.15;;
83562;SDS011;73535;52.500;13.482;2024-01-16T12:05:54;11.25;;;3.10;;
83562;SDS011;73535;52.500;13.482;2024-01-16T12:08:21;7.18;;;3.65;;
83562;SDS011;73535;52.500;13.482;2024-01-16T12:10:47;8.48;;;3.60;;
83562;SDS011;73535;52.500;13.482;2024-01-16T12:13:13;9.07;;;3.40;;
83562;SDS011;73535;52.500;13.482;2024-01-16T12:15:38;6.35;;;3.67;;
83562;SDS011;73535;52.500;13.482;2024-01-16T12:18:03;8.15;;;4.32;;
83562;SDS011;73535;52.500;13.482;2024-01-16T12:20:30;7.88;;;3.80;;
83562;SDS011;73535;52.500;13.482;2024-01-16T12:22:57;9.00;;;4.32;;
83562;SDS011;73535;52.500;13.482;2024-01-16T12:25:24;10.98;;;4.15;;
83562;SDS011;73535;52.500;13.482;2024-01-16T12:27:54;8.63;;;4.53;;
83562;SDS011;73535;52.500;13.482;2024-01-16T12:30:30;8.90;;;4.10;;
83562;SDS011;73535;52.500;13.482;2024-01-16T12:33:12;8.40;;;4.18;;
83562;SDS011;73535;52.500;13.482;2024-01-16T12:35:44;8.50;;;4.35;;
83562;SDS011;73535;52.500;13.482;2024-01-16T12:38:10;8.07;;;3.92;;
83562;SDS011;73535;52.500;13.482;2024-01-16T12:40:41;6.90;;;3.90;;
83562;SDS011;73535;52.500;13.482;2024-01-16T12:43:11;7.68;;;4.45;;
83562;SDS011;73535;52.500;13.482;2024-01-16T12:45:36;8.00;;;4.38;;
83562;SDS011;73535;52.500;13.482;2024-01-16T12:48:02;12.15;;;5.18;;
83562;SDS011;73535;52.500;13.482;2024-01-16T12:50:28;8.70;;;4.88;;
83562;SDS011;73535;52.500;13.482;2024-01-16T12:53:10;10.30;;;5.28;;
83562;SDS011;73535;52.500;13.482;2024-01-16T12:55:39;10.00;;;4.75;;
83562;SDS011;73535;52.500;13.482;2024-01-16T12:58:19;11.48;;;5.30;;
83562;SDS011;73535;52.500;13.482;2024-01-16T13:00:45;12.65;;;5.18;;
83562;SDS011;73535;52.500;13.482;2024-01-16T13:03:33;9.05;;;4.40;;
83562;SDS011;73535;52.500;13.482;2024-01-16T13:05:58;9.02;;;3.75;;
83562;SDS011;73535;52.500;13.482;2024-01-16T13:08:29;11.50;;;4.32;;
83562;SDS011;73535;52.500;13.482;2024-01-16T13:11:04;8.27;;;4.45;;
83562;SDS011;73535;52.500;13.482;2024-01-16T13:13:33;5.72;;;3.42;;
83562;SDS011;73535;52.500;13.482;2024-01-16T13:15:59;11.57;;;3.67;;
83562;SDS011;73535;52.500;13.482;2024-01-16T13:18:29;9.00;;;3.83;;
83562;SDS011;73535;52.500;13.482;2024-01-16T13:20:55;8.63;;;3.55;;
83562;SDS011;73535;52.500;13.482;2024-01-16T13:23:21;9.20;;;3.83;;
83562;SDS011;73535;52.500;13.482;2024-01-16T13:25:49;8.23;;;3.42;;
83562;SDS011;73535;52.500;13.482;2024-01-16T13:28:16;6.53;;;3.20;;
83562;SDS011;73535;52.500;13.482;2024-01-16T13:30:45;11.45;;;4.03;;
83562;SDS011;73535;52.500;13.482;2024-01-16T13:33:11;8.43;;;3.95;;
83562;SDS011;73535;52.500;13.482;2024-01-16T13:35:41;5.30;;;3.50;;
83562;SDS011;73535;52.500;13.482;2024-01-16T13:38:07;7.30;;;3.97;;
83562;SDS011;73535;52.500;13.482;2024-01-16T13:40:33;14.95;;;4.43;;
83562;SDS011;73535;52.500;13.482;2024-01-16T13:43:02;8.30;;;3.42;;
83562;SDS011;73535;52.500;13.482;2024-01-16T13:45:28;10.65;;;4.03;;
83562;SDS011;73535;52.500;13.482;2024-01-16T13:47:57;7.57;;;3.28;;
83562;SDS011;73535;52.500;13.482;2024-01-16T13:50:22;7.63;;;3.08;;
83562;SDS011;73535;52.500;13.482;2024-01-16T13:52:48;7.13;;;2.90;;
83562;SDS011;73535;52.500;13.482;2024-01-16T13:55:14;6.45;;;3.00;;
83562;SDS011;73535;52.500;13.482;2024-01-16T13:57:39;7.82;;;3.75;;
83562;SDS011;73535;52.500;13.482;2024-01-16T14:00:05;7.07;;;3.38;;
83562;SDS011;73535;52.500;13.482;2024-01-16T14:02:32;6.95;;;2.60;;
83562;SDS011;73535;52.500;13.482;2024-01-16T14:04:59;10.25;;;2.75;;
83562;SDS011;73535;52.500;13.482;2024-01-16T14:07:25;12.73;;;3.90;;
83562;SDS011;73535;52.500;13.482;2024-01-16T14:09:50;6.88;;;3.17;;
83562;SDS011;73535;52.500;13.482;2024-01-16T14:12:15;8.02;;;2.90;;
83562;SDS011;73535;52.500;13.482;2024-01-16T14:14:41;8.55;;;2.97;;
83562;SDS011;73535;52.500;13.482;2024-01-16T14:17:06;6.30;;;2.75;;
83562;SDS011;73535;52.500;13.482;2024-01-16T14:19:34;8.80;;;3.00;;
83562;SDS011;73535;52.500;13.482;2024-01-16T14:22:00;8.63;;;3.15;;
83562;SDS011;73535;52.500;13.482;2024-01-16T14:24:25;6.32;;;2.85;;
83562;SDS011;73535;52.500;13.482;2024-01-16T14:26:50;6.80;;;2.83;;
83562;SDS011;73535;52.500;13.482;2024-01-16T14:29:16;6.45;;;2.85;;
83562;SDS011;73535;52.500;13.482;2024-01-16T14:31:41;10.75;;;3.38;;
83562;SDS011;73535;52.500;13.482;2024-01-16T14:34:10;9.80;;;3.42;;
83562;SDS011;73535;52.500;13.482;2024-01-16T14:36:36;9.77;;;3.55;;
83562;SDS011;73535;52.500;13.482;2024-01-16T14:39:01;6.60;;;3.42;;
83562;SDS011;73535;52.500;13.482;2024-01-16T14:41:27;6.10;;;2.40;;
83562;SDS011;73535;52.500;13.482;2024-01-16T14:43:52;6.90;;;2.70;;
83562;SDS011;73535;52.500;13.482;2024-01-16T14:46:17;13.57;;;3.08;;
83562;SDS011;73535;52.500;13.482;2024-01-16T14:48:44;6.57;;;2.67;;